Time;durP1;ratioP1;P1;durP2;ratioP2;P2;SDS_P1;SDS_P2;PMS_P1;PMS_P2;Temp;Humidity;BMP_temperature;BMP_pressure;BME280_temperature;BME280_humidity;BME280_pressure;Samples;Min_cycle;Max_cycle;Signal;HPM_P1;HPM_P2
2024/02/27 00:01:10;;;;;;;3.28;2.97;;;;;;;7.22;100.00;100875.75;5064564;28;20056;-74
2024/02/27 00:03:35;;;;;;;0.38;0.38;;;;;;;6.90;100.00;100804.59;5070402;28;20527;-73
2024/02/27 00:06:03;;;;;;;0.40;0.40;;;;;;;6.90;100.00;100864.59;5085494;28;20024;-74
2024/02/27 00:08:28;;;;;;;0.45;0.45;;;;;;;7.42;100.00;100910.06;5084875;28;20052;-76
2024/02/27 00:10:54;;;;;;;0.55;0.55;;;;;;;7.04;100.00;100834.47;5089972;28;20066;-74
2024/02/27 00:13:20;;;;;;;0.65;0.65;;;;;;;6.94;100.00;100794.25;5085185;28;20477;-74
2024/02/27 00:15:45;;;;;;;0.32;0.32;;;;;;;7.52;100.00;100906.81;5081968;28;20079;-75
2024/02/27 00:18:16;;;;;;;0.20;0.20;;;;;;;7.27;100.00;100884.53;5075544;28;21144;-74
2024/02/27 00:20:42;;;;;;;1.30;1.20;;;;;;;6.81;100.00;100792.22;5085688;28;20032;-76
2024/02/27 00:23:08;;;;;;;0.80;0.80;;;;;;;6.63;100.00;100778.81;5065727;28;20502;-74
2024/02/27 00:25:33;;;;;;;2.30;2.10;;;;;;;7.35;100.00;100902.97;5085785;28;20143;-73
2024/02/27 00:27:59;;;;;;;0.40;0.30;;;;;;;6.73;100.00;100783.38;5085949;28;20200;-75
2024/02/27 00:30:26;;;;;;;0.47;0.47;;;;;;;6.85;100.00;100835.81;5083424;28;20048;-74
2024/02/27 00:32:54;;;;;;;0.50;0.50;;;;;;;7.21;100.00;100879.22;5079854;28;20047;-74
2024/02/27 00:35:20;;;;;;;3.75;3.60;;;;;;;7.19;100.00;100873.94;5083761;28;20054;-74
2024/02/27 00:37:45;;;;;;;0.30;0.30;;;;;;;7.38;100.00;100898.69;5058671;28;20064;-74
2024/02/27 00:40:12;;;;;;;0.40;0.40;;;;;;;7.37;100.00;100901.28;5080693;28;20052;-76
2024/02/27 00:42:38;;;;;;;1.10;0.93;;;;;;;7.25;100.00;100880.13;5078246;28;20044;-76
2024/02/27 00:45:05;;;;;;;0.30;0.30;;;;;;;7.18;100.00;100866.06;5086783;28;20047;-74
2024/02/27 00:47:31;;;;;;;0.82;0.82;;;;;;;7.39;100.00;100892.63;5067301;28;20041;-75
2024/02/27 00:49:57;;;;;;;1.10;1.10;;;;;;;7.22;100.00;100875.75;5068619;28;20056;-75
2024/02/27 00:52:24;;;;;;;0.30;0.30;;;;;;;7.01;100.00;100830.94;5081896;28;20053;-76
2024/02/27 00:54:50;;;;;;;0.30;0.30;;;;;;;6.92;100.00;100798.56;5087467;28;20047;-76
2024/02/27 00:57:16;;;;;;;1.17;1.08;;;;;;;6.73;100.00;100762.53;5079950;28;20024;-74
2024/02/27 00:59:41;;;;;;;0.20;0.20;;;;;;;6.87;100.00;100810.63;5077948;28;20062;-75
2024/02/27 01:02:08;;;;;;;0.60;0.60;;;;;;;6.88;100.00;100811.50;5080870;28;20051;-74
2024/02/27 01:04:34;;;;;;;0.30;0.30;;;;;;;6.72;100.00;100792.94;5071126;28;20063;-74
2024/02/27 01:07:01;;;;;;;2.95;2.70;;;;;;;6.83;100.00;100797.50;5082990;28;20470;-74
2024/02/27 01:09:28;;;;;;;0.20;0.20;;;;;;;7.40;100.00;100904.84;5085159;28;20513;-74
2024/02/27 01:11:54;;;;;;;0.30;0.30;;;;;;;7.44;100.00;100908.38;5080409;28;20024;-76
2024/02/27 01:14:19;;;;;;;0.30;0.30;;;;;;;7.38;100.00;100890.88;5085512;28;20410;-73
2024/02/27 01:16:46;;;;;;;6.85;2.28;;;;;;;7.33;100.00;100884.69;5079413;28;20040;-75
2024/02/27 01:19:12;;;;;;;0.45;0.45;;;;;;;7.18;100.00;100851.28;5079093;28;20082;-75
2024/02/27 01:21:42;;;;;;;0.32;0.30;;;;;;;7.49;100.00;100911.09;5082281;28;20442;-75
2024/02/27 01:24:08;;;;;;;2.03;1.85;;;;;;;6.95;100.00;100816.91;5066620;28;20486;-74
2024/02/27 01:26:34;;;;;;;0.30;0.30;;;;;;;7.02;100.00;100843.13;5063766;28;20062;-75
2024/02/27 01:29:00;;;;;;;0.65;0.65;;;;;;;6.88;100.00;100788.94;5066956;28;20063;-74
2024/02/27 01:31:27;;;;;;;0.20;0.20;;;;;;;7.07;100.00;100813.69;5081231;28;20062;-75
2024/02/27 01:33:53;;;;;;;0.55;0.55;;;;;;;6.93;100.00;100818.59;5077170;28;20192;-74
2024/02/27 01:36:18;;;;;;;0.20;0.20;;;;;;;7.29;100.00;100902.84;5082909;28;20115;-75
2024/02/27 01:38:45;;;;;;;0.40;0.40;;;;;;;7.29;100.00;100888.06;5080521;28;20039;-75
2024/02/27 01:41:10;;;;;;;0.93;0.90;;;;;;;6.82;100.00;100807.06;5078129;28;20446;-74
2024/02/27 01:43:36;;;;;;;0.68;0.68;;;;;;;7.15;100.00;100887.78;5083475;28;20044;-75
2024/02/27 01:46:17;;;;;;;1.45;1.38;;;;;;;7.12;100.00;100886.84;5081787;28;20479;-74
2024/02/27 01:48:45;;;;;;;0.38;0.38;;;;;;;6.71;100.00;100809.41;5076483;28;20066;-75
2024/02/27 01:51:13;;;;;;;0.63;0.63;;;;;;;6.90;100.00;100891.56;5083679;28;20135;-75
2024/02/27 01:53:42;;;;;;;3.67;3.45;;;;;;;6.53;100.00;100807.31;5081963;28;20084;-75
2024/02/27 01:56:10;;;;;;;0.25;0.25;;;;;;;6.93;100.00;100894.25;5084148;28;20750;-75
2024/02/27 01:58:36;;;;;;;0.98;0.95;;;;;;;6.55;100.00;100799.50;5083031;28;20096;-75
2024/02/27 02:01:02;;;;;;;1.48;1.30;;;;;;;7.00;100.00;100903.09;5075387;28;20052;-75
2024/02/27 02:03:31;;;;;;;1.20;1.10;;;;;;;6.98;100.00;100907.41;5078673;28;20063;-76
2024/02/27 02:05:58;;;;;;;1.60;1.50;;;;;;;6.15;100.00;100808.09;5081357;28;20043;-73
2024/02/27 02:08:27;;;;;;;0.43;0.30;;;;;;;6.18;100.00;100785.63;5074443;28;20551;-76
2024/02/27 02:10:53;;;;;;;0.60;0.60;;;;;;;6.78;100.00;100895.63;5077041;28;20051;-75
2024/02/27 02:13:18;;;;;;;0.30;0.30;;;;;;;6.16;100.00;100795.13;5080140;28;20473;-75
2024/02/27 02:15:44;;;;;;;0.40;0.40;;;;;;;5.94;100.00;100772.88;5081887;28;20047;-75
2024/02/27 02:18:09;;;;;;;2.92;2.70;;;;;;;6.02;100.00;100799.13;5066612;28;20067;-75
2024/02/27 02:20:35;;;;;;;0.50;0.50;;;;;;;6.09;100.00;100907.84;5081290;28;20040;-75
2024/02/27 02:23:02;;;;;;;1.27;1.23;;;;;;;6.09;100.00;100910.47;5082890;28;20705;-75
2024/02/27 02:25:31;;;;;;;0.40;0.40;;;;;;;6.22;100.00;100893.41;5083275;28;20214;-75
2024/02/27 02:27:57;;;;;;;0.20;0.20;;;;;;;6.27;100.00;100913.50;5062492;28;20487;-75
2024/02/27 02:30:22;;;;;;;0.30;0.30;;;;;;;6.21;100.00;100889.91;5076196;28;20032;-75
2024/02/27 02:32:49;;;;;;;1.15;1.10;;;;;;;5.56;100.00;100879.47;5077743;28;20424;-75
2024/02/27 02:35:15;;;;;;;0.40;0.40;;;;;;;5.50;100.00;100919.25;5078672;28;21691;-74
2024/02/27 02:37:42;;;;;;;0.40;0.40;;;;;;;4.99;100.00;100836.22;5079152;28;20044;-73
2024/02/27 02:40:08;;;;;;;0.93;0.63;;;;;;;5.00;100.00;100918.59;5077705;28;20048;-75
2024/02/27 02:42:34;;;;;;;0.20;0.20;;;;;;;4.70;100.00;100819.75;5078744;28;20043;-75
2024/02/27 02:45:00;;;;;;;0.38;0.38;;;;;;;4.54;100.00;100812.31;5077802;28;20078;-76
2024/02/27 02:47:25;;;;;;;0.30;0.30;;;;;;;5.45;100.00;100919.94;5087354;28;20083;-74
2024/02/27 02:49:51;;;;;;;0.30;0.30;;;;;;;4.57;100.00;100831.50;5077402;28;20068;-73
2024/02/27 02:52:16;;;;;;;0.85;0.85;;;;;;;5.11;100.00;100894.66;5079365;28;20083;-73
2024/02/27 02:54:42;;;;;;;0.75;0.75;;;;;;;4.42;100.00;100824.13;5081490;28;20074;-78
2024/02/27 02:57:08;;;;;;;0.40;0.40;;;;;;;4.61;100.00;100936.41;5075600;28;20477;-75
2024/02/27 02:59:34;;;;;;;11.13;9.95;;;;;;;5.12;100.00;100933.69;5081226;28;20043;-77
2024/02/27 03:01:59;;;;;;;0.30;0.30;;;;;;;3.75;100.00;100718.09;5058887;28;20097;-76
2024/02/27 03:04:25;;;;;;;0.50;0.50;;;;;;;5.07;100.00;100909.28;5081638;28;20059;-75
2024/02/27 03:06:51;;;;;;;0.30;0.30;;;;;;;5.04;100.00;100894.47;5077492;28;20143;-75
2024/02/27 03:09:18;;;;;;;0.47;0.47;;;;;;;4.61;100.00;100825.56;5074193;28;20032;-75
2024/02/27 03:11:43;;;;;;;0.68;0.68;;;;;;;5.18;100.00;100928.69;5082458;28;20028;-73
2024/02/27 03:14:09;;;;;;;1.23;1.15;;;;;;;5.11;100.00;100939.75;5075671;28;20676;-73
2024/02/27 03:16:34;;;;;;;7.20;6.82;;;;;;;4.64;100.00;100928.75;5079412;28;20121;-74
2024/02/27 03:19:01;;;;;;;0.30;0.30;;;;;;;3.90;100.00;100811.16;5065374;28;20513;-74
2024/02/27 03:21:27;;;;;;;5.70;5.40;;;;;;;3.72;100.00;100809.72;5080466;28;20040;-73
2024/02/27 03:23:52;;;;;;;0.30;0.30;;;;;;;3.96;100.00;100852.91;5086590;28;20494;-73
2024/02/27 03:26:18;;;;;;;0.30;0.30;;;;;;;4.23;100.00;100938.63;5078801;28;20146;-75
2024/02/27 03:28:43;;;;;;;3.55;3.40;;;;;;;3.38;100.00;100807.66;5078930;28;20064;-74
2024/02/27 03:31:10;;;;;;;0.45;0.45;;;;;;;3.58;100.00;100848.16;5077932;28;20783;-74
2024/02/27 03:33:35;;;;;;;0.60;0.60;;;;;;;3.35;100.00;100820.50;5060964;28;20114;-76
2024/02/27 03:36:04;;;;;;;0.30;0.30;;;;;;;3.70;100.00;100831.22;5085585;28;20034;-74
2024/02/27 03:38:33;;;;;;;10.75;5.40;;;;;;;3.81;100.00;100921.59;5078987;28;20071;-74
2024/02/27 03:40:58;;;;;;;0.30;0.30;;;;;;;3.98;100.00;100942.09;5084659;28;20044;-74
2024/02/27 03:43:24;;;;;;;1.88;1.75;;;;;;;3.62;100.00;100918.31;5081108;28;20055;-73
2024/02/27 03:45:50;;;;;;;0.57;0.57;;;;;;;4.17;100.00;100952.31;5062886;28;20044;-74
2024/02/27 03:48:16;;;;;;;0.35;0.35;;;;;;;3.79;100.00;100847.09;5081292;28;20037;-76
2024/02/27 03:50:42;;;;;;;0.85;0.85;;;;;;;4.36;100.00;100927.81;5082213;28;20097;-74
2024/02/27 03:53:08;;;;;;;0.30;0.30;;;;;;;4.32;100.00;100927.69;5059929;28;20040;-74
2024/02/27 03:55:33;;;;;;;0.50;0.50;;;;;;;4.56;100.00;100948.38;5082866;28;20048;-74
2024/02/27 03:57:59;;;;;;;0.22;0.22;;;;;;;4.64;100.00;100940.00;5079182;28;20044;-74
2024/02/27 04:00:26;;;;;;;4.15;3.83;;;;;;;4.35;100.00;100907.88;5080134;28;20027;-73
2024/02/27 04:02:53;;;;;;;3.67;2.58;;;;;;;4.42;100.00;100938.44;5082351;28;20057;-76
2024/02/27 04:05:19;;;;;;;1.17;1.17;;;;;;;4.36;100.00;100898.38;5081982;28;20079;-74
2024/02/27 04:07:44;;;;;;;1.75;1.65;;;;;;;4.57;100.00;100918.97;5071402;28;20121;-74
2024/02/27 04:10:10;;;;;;;0.70;0.70;;;;;;;4.65;100.00;100926.16;5080029;28;20063;-74
2024/02/27 04:12:36;;;;;;;0.50;0.50;;;;;;;4.75;100.00;100934.28;5082508;28;20550;-75
2024/02/27 04:15:01;;;;;;;1.17;1.17;;;;;;;4.74;100.00;100925.59;5073337;28;20063;-74
2024/02/27 04:17:27;;;;;;;0.90;0.90;;;;;;;4.62;100.00;100904.41;5074516;28;20049;-74
2024/02/27 04:19:54;;;;;;;0.30;0.30;;;;;;;4.78;100.00;100926.59;5076545;28;20048;-74
2024/02/27 04:22:21;;;;;;;0.40;0.40;;;;;;;4.60;100.00;100922.53;5075455;28;20052;-74
2024/02/27 04:24:46;;;;;;;0.40;0.40;;;;;;;3.96;100.00;100825.22;5073700;28;20708;-76
2024/02/27 04:27:12;;;;;;;0.30;0.30;;;;;;;4.44;100.00;100886.50;5077554;28;20077;-74
2024/02/27 04:29:41;;;;;;;0.47;0.47;;;;;;;4.87;100.00;100937.28;5079872;28;20044;-74
2024/02/27 04:32:07;;;;;;;0.30;0.30;;;;;;;4.23;100.00;100866.78;5070500;28;20051;-76
2024/02/27 04:34:32;;;;;;;0.30;0.30;;;;;;;3.95;100.00;100827.75;5079278;28;20459;-75
2024/02/27 04:36:58;;;;;;;1.13;1.13;;;;;;;4.42;100.00;100940.13;5071119;28;20747;-75
2024/02/27 04:39:24;;;;;;;0.98;0.88;;;;;;;3.91;100.00;100841.44;5078221;28;20050;-76
2024/02/27 04:41:50;;;;;;;0.50;0.50;;;;;;;3.28;100.00;100818.53;5076236;28;20035;-75
2024/02/27 04:44:19;;;;;;;0.95;0.95;;;;;;;3.40;100.00;100839.72;5074819;28;20048;-74
2024/02/27 04:46:46;;;;;;;2.17;2.08;;;;;;;3.41;100.00;100927.06;5083232;28;20051;-76
2024/02/27 04:49:11;;;;;;;2.35;2.25;;;;;;;2.64;100.00;100846.38;5079209;28;20238;-75
2024/02/27 04:51:37;;;;;;;5.07;4.65;;;;;;;2.91;100.00;100843.09;5076387;28;20604;-76
2024/02/27 04:54:03;;;;;;;0.38;0.38;;;;;;;3.96;100.00;100962.81;5082553;28;20483;-76
2024/02/27 04:56:29;;;;;;;0.57;0.40;;;;;;;3.93;100.00;100947.16;5077959;28;20428;-75
2024/02/27 04:58:54;;;;;;;5.10;3.95;;;;;;;3.73;100.00;100930.84;5073313;28;20052;-75
2024/02/27 05:01:20;;;;;;;2.65;2.55;;;;;;;4.16;100.00;100954.84;5064405;28;20052;-74
2024/02/27 05:03:46;;;;;;;4.28;4.05;;;;;;;4.17;100.00;100928.94;5083130;28;20395;-74
2024/02/27 05:06:13;;;;;;;0.50;0.50;;;;;;;4.09;100.00;100958.06;5078475;28;20031;-78
2024/02/27 05:08:38;;;;;;;1.10;1.10;;;;;;;3.81;100.00;100970.91;5059031;28;20037;-75
2024/02/27 05:11:04;;;;;;;1.42;1.35;;;;;;;2.72;100.00;100854.47;5076445;28;20048;-73
2024/02/27 05:13:29;;;;;;;0.30;0.30;;;;;;;2.53;100.00;100839.91;5076682;28;20052;-75
2024/02/27 05:15:55;;;;;;;3.33;3.13;;;;;;;3.23;100.00;100989.50;5068379;28;20044;-75
2024/02/27 05:18:21;;;;;;;1.08;1.08;;;;;;;3.27;100.00;100987.91;5063900;28;20077;-75
2024/02/27 05:20:48;;;;;;;2.47;2.38;;;;;;;2.42;100.00;100909.41;5088256;28;20046;-74
2024/02/27 05:23:16;;;;;;;3.13;2.95;;;;;;;2.27;100.00;100898.41;5085700;28;20541;-75
2024/02/27 05:25:42;;;;;;;4.43;4.22;;;;;;;2.38;100.00;100922.16;5085561;28;20069;-75
2024/02/27 05:28:09;;;;;;;1.88;1.17;;;;;;;2.64;100.00;100985.38;5082083;28;20494;-75
2024/02/27 05:30:35;;;;;;;0.40;0.40;;;;;;;2.87;100.00;101023.50;5081907;28;20043;-79
2024/02/27 05:33:00;;;;;;;0.55;0.55;;;;;;;2.50;100.00;100946.84;5086215;28;20047;-76
2024/02/27 05:35:26;;;;;;;0.57;0.57;;;;;;;2.28;100.00;100933.84;5081611;28;20599;-76
2024/02/27 05:37:52;;;;;;;0.80;0.80;;;;;;;2.25;100.00;100923.38;5085309;28;20039;-75
2024/02/27 05:40:17;;;;;;;0.57;0.57;;;;;;;2.56;100.00;100961.78;5085033;28;20106;-76
2024/02/27 05:42:43;;;;;;;0.30;0.30;;;;;;;3.08;100.00;101015.69;5082593;28;20495;-76
2024/02/27 05:45:09;;;;;;;0.40;0.40;;;;;;;2.91;100.00;101047.84;5057593;28;20468;-76
2024/02/27 05:47:35;;;;;;;5.88;4.88;;;;;;;2.83;100.00;101031.09;5086626;28;20095;-76
2024/02/27 05:50:02;;;;;;;1.33;1.23;;;;;;;2.97;100.00;101058.44;5085926;28;20483;-77
2024/02/27 05:52:28;;;;;;;5.95;5.55;;;;;;;2.72;100.00;101036.72;5064300;28;20059;-77
2024/02/27 05:54:54;;;;;;;4.43;4.13;;;;;;;2.82;100.00;101052.66;5085696;28;20073;-74
2024/02/27 05:57:19;;;;;;;11.05;10.25;;;;;;;2.90;100.00;101072.88;5085477;28;20019;-75
2024/02/27 05:59:45;;;;;;;1.40;1.35;;;;;;;2.90;100.00;101072.88;5084879;28;20043;-75
2024/02/27 06:02:11;;;;;;;1.25;1.25;;;;;;;2.84;100.00;101053.59;5083024;28;20103;-75
2024/02/27 06:04:36;;;;;;;1.15;1.15;;;;;;;3.25;100.00;101080.31;5081572;28;20109;-74
2024/02/27 06:07:02;;;;;;;0.57;0.57;;;;;;;3.14;100.00;101083.38;5074784;28;20040;-75
2024/02/27 06:09:28;;;;;;;0.30;0.30;;;;;;;3.25;100.00;101083.78;5085146;28;20047;-75
2024/02/27 06:11:53;;;;;;;41.47;37.88;;;;;;;2.89;100.00;101014.09;5081502;28;20742;-76
2024/02/27 06:14:19;;;;;;;0.40;0.40;;;;;;;3.09;100.00;101061.56;5061508;28;20101;-76
2024/02/27 06:16:45;;;;;;;0.40;0.40;;;;;;;3.15;100.00;101090.31;5077155;28;20075;-77
2024/02/27 06:19:10;;;;;;;6.13;4.60;;;;;;;3.36;100.00;101100.66;5060622;28;20096;-76
2024/02/27 06:24:20;;;;;;;5.60;5.18;;;;;;;3.53;100.00;101083.19;5081378;28;20536;-75
2024/02/27 06:26:45;;;;;;;0.93;0.93;;;;;;;2.96;100.00;101000.53;5082199;28;20044;-75
2024/02/27 06:29:11;;;;;;;1.20;1.13;;;;;;;3.11;100.00;100994.19;5076916;28;20514;-74
2024/02/27 06:31:36;;;;;;;19.65;17.95;;;;;;;3.66;100.00;101081.97;5077552;28;20043;-74
2024/02/27 06:34:03;;;;;;;12.40;11.45;;;;;;;2.69;100.00;100873.38;5072074;28;20063;-75
2024/02/27 06:36:30;;;;;;;1.88;1.77;;;;;;;4.07;100.00;101092.13;5074569;28;20084;-75
2024/02/27 06:38:56;;;;;;;3.22;3.10;;;;;;;3.97;100.00;101071.03;5078770;28;20036;-75
2024/02/27 06:41:24;;;;;;;0.68;0.68;;;;;;;3.45;100.00;100999.00;5079303;28;20040;-75
2024/02/27 06:43:50;;;;;;;1.67;1.63;;;;;;;3.98;100.00;101067.63;5062239;28;20063;-76
2024/02/27 06:46:15;;;;;;;0.30;0.30;;;;;;;4.04;100.00;101046.16;5082867;28;20147;-75
2024/02/27 06:48:41;;;;;;;0.60;0.60;;;;;;;3.79;100.00;101003.75;5064749;28;20052;-75
2024/02/27 06:51:08;;;;;;;2.15;1.65;;;;;;;4.62;100.00;101112.34;5082859;28;20028;-74
2024/02/27 06:53:35;;;;;;;1.02;1.00;;;;;;;4.59;100.00;101083.66;5081923;28;20067;-76
2024/02/27 06:56:01;;;;;;;3.20;3.10;;;;;;;4.03;100.00;101008.06;5077084;28;20051;-77
2024/02/27 06:58:27;;;;;;;0.30;0.30;;;;;;;4.49;100.00;101092.81;5080632;28;20144;-76
2024/02/27 07:00:52;;;;;;;0.50;0.50;;;;;;;4.53;100.00;101047.91;5080595;28;20139;-76
2024/02/27 07:03:18;;;;;;;5.15;4.95;;;;;;;5.11;100.00;101119.22;5068747;28;20056;-76
2024/02/27 07:05:45;;;;;;;0.35;0.35;;;;;;;5.14;100.00;101111.53;5084017;28;20028;-76
2024/02/27 07:08:10;;;;;;;0.45;0.45;;;;;;;4.62;100.00;101032.66;5080146;28;20105;-75
2024/02/27 07:10:39;;;;;;;41.90;12.70;;;;;;;4.55;100.00;101118.16;5081580;28;20551;-76
2024/02/27 07:13:06;;;;;;;0.82;0.82;;;;;;;4.54;100.00;101099.09;5061701;28;20044;-76
2024/02/27 07:15:38;;;;;;;1.50;1.15;;;;;;;4.60;100.00;101080.22;5078878;28;20075;-74
2024/02/27 07:18:04;;;;;;;0.98;0.98;;;;;;;4.35;100.00;101037.75;5085404;28;20040;-75
2024/02/27 07:20:30;;;;;;;0.85;0.85;;;;;;;5.20;100.00;101119.53;5081118;28;20381;-74
2024/02/27 07:22:56;;;;;;;0.60;0.60;;;;;;;5.08;100.00;101104.41;5057404;28;20396;-77
2024/02/27 07:25:22;;;;;;;0.82;0.82;;;;;;;5.19;100.00;101038.81;5083075;28;20040;-76
2024/02/27 07:27:48;;;;;;;0.30;0.30;;;;;;;5.61;100.00;101099.16;5083610;28;20060;-75
2024/02/27 07:30:17;;;;;;;0.30;0.30;;;;;;;6.05;100.00;101112.69;5066684;28;20039;-74
2024/02/27 07:32:43;;;;;;;0.30;0.30;;;;;;;5.36;100.00;100989.91;5080369;28;20059;-75
2024/02/27 07:35:09;;;;;;;1.38;0.55;;;;;;;6.28;100.00;101104.66;5065523;28;20611;-76
2024/02/27 07:37:35;;;;;;;0.30;0.30;;;;;;;5.61;100.00;101041.00;5076071;28;20040;-76
2024/02/27 07:40:01;;;;;;;1.15;1.08;;;;;;;6.34;100.00;101117.84;5083349;28;20054;-76
2024/02/27 07:42:27;;;;;;;1.95;1.85;;;;;;;6.56;100.00;101111.53;5065063;28;20035;-74
2024/02/27 07:44:53;;;;;;;0.55;0.55;;;;;;;6.93;100.00;101107.28;5078402;28;20051;-75
2024/02/27 07:47:20;;;;;;;0.65;0.43;;;;;;;6.46;100.00;101010.41;5084570;28;20095;-74
2024/02/27 07:49:47;;;;;;;0.20;0.20;;;;;;;6.82;100.00;101027.88;5075180;28;20072;-75
2024/02/27 07:52:13;;;;;;;1.40;1.30;;;;;;;6.99;100.00;101005.69;5083296;28;20048;-76
2024/02/27 07:54:42;;;;;;;0.63;0.63;;;;;;;7.58;100.00;101088.84;5083643;28;20121;-76
2024/02/27 07:57:07;;;;;;;0.20;0.20;;;;;;;7.59;100.00;101085.41;5081900;28;20027;-74
2024/02/27 07:59:33;;;;;;;0.85;0.85;;;;;;;7.04;100.00;100985.81;5083236;28;20040;-76
2024/02/27 08:01:59;;;;;;;4.05;3.83;;;;;;;7.32;100.00;101034.31;5081940;28;20052;-76
2024/02/27 08:04:25;;;;;;;1.08;1.00;;;;;;;7.78;100.00;101079.75;5075048;28;20051;-76
2024/02/27 08:06:50;;;;;;;0.30;0.30;;;;;;;7.86;100.00;101068.59;5077553;28;20047;-75
2024/02/27 08:09:16;;;;;;;0.43;0.43;;;;;;;7.26;100.00;100963.72;5081022;28;20427;-74
2024/02/27 08:11:42;;;;;;;0.40;0.40;;;;;;;6.70;100.00;100854.59;5080296;28;20081;-76
2024/02/27 08:14:08;;;;;;;0.30;0.30;;;;;;;7.49;100.00;100965.91;5081414;28;20040;-75
2024/02/27 08:16:33;;;;;;;10.70;9.90;;;;;;;7.83;100.00;101044.16;5080036;28;20146;-74
2024/02/27 08:19:04;;;;;;;0.40;0.40;;;;;;;7.50;100.00;100970.31;5078672;28;20940;-76
2024/02/27 08:21:33;;;;;;;0.40;0.40;;;;;;;7.89;100.00;101047.72;5078128;28;20028;-77
2024/02/27 08:24:02;;;;;;;1.52;1.48;;;;;;;8.28;100.00;101054.63;5073814;28;20036;-76
2024/02/27 08:26:28;;;;;;;0.40;0.40;;;;;;;7.47;100.00;100989.41;5075956;28;20052;-75
2024/02/27 08:28:54;;;;;;;0.30;0.30;;;;;;;8.01;100.00;101074.16;5079470;28;20079;-75
2024/02/27 08:31:19;;;;;;;2.67;2.45;;;;;;;6.59;100.00;100916.06;5078885;28;20063;-75
2024/02/27 08:33:45;;;;;;;0.45;0.45;;;;;;;8.12;100.00;101090.03;5070820;28;20525;-76
2024/02/27 08:36:11;;;;;;;1.10;0.95;;;;;;;7.97;100.00;100986.06;5079867;28;20031;-75
2024/02/27 08:38:36;;;;;;;0.40;0.40;;;;;;;8.69;100.00;101073.78;5073453;28;20491;-78
2024/02/27 08:41:02;;;;;;;0.30;0.30;;;;;;;8.59;100.00;101061.34;5072271;28;20046;-75
2024/02/27 08:43:29;;;;;;;0.30;0.30;;;;;;;8.47;100.00;100983.56;5074975;28;20408;-76
2024/02/27 08:45:54;;;;;;;0.60;0.50;;;;;;;8.88;100.00;101070.63;5087100;28;20036;-76
2024/02/27 08:48:20;;;;;;;1.88;1.80;;;;;;;8.85;100.00;101065.34;5065891;28;20051;-75
2024/02/27 08:50:47;;;;;;;2.33;2.10;;;;;;;8.17;100.00;101054.41;5075935;28;20032;-75
2024/02/27 08:53:13;;;;;;;0.65;0.65;;;;;;;8.20;100.00;100971.72;5078107;28;20522;-77
2024/02/27 08:55:40;;;;;;;6.05;3.40;;;;;;;8.10;100.00;100981.97;5079121;28;20341;-75
2024/02/27 08:58:06;;;;;;;0.28;0.28;;;;;;;8.85;100.00;101044.41;5075218;28;20055;-76
2024/02/27 09:00:32;;;;;;;0.85;0.82;;;;;;;8.31;100.00;100979.78;5086003;28;20052;-75
2024/02/27 09:03:01;;;;;;;0.30;0.30;;;;;;;8.41;100.00;100986.94;5080797;28;20040;-75
2024/02/27 09:05:26;;;;;;;1.20;1.00;;;;;;;9.23;100.00;101051.13;5079592;28;20526;-77
2024/02/27 09:07:52;;;;;;;3.28;2.80;;;;;;;8.36;100.00;101004.25;5079326;28;20036;-74
2024/02/27 09:10:17;;;;;;;0.30;0.30;;;;;;;8.83;100.00;100990.28;5085497;28;20052;-75
2024/02/27 09:12:44;;;;;;;3.30;1.38;;;;;;;8.93;100.00;100986.94;5083627;28;20523;-77
2024/02/27 09:15:10;;;;;;;0.30;0.30;;;;;;;9.45;100.00;101055.81;5077068;28;20040;-76
2024/02/27 09:17:37;;;;;;;0.20;0.20;;;;;;;9.34;100.00;101069.63;5066989;28;20101;-76
2024/02/27 09:20:04;;;;;;;0.30;0.30;;;;;;;8.58;100.00;100968.06;5079776;28;20079;-77
2024/02/27 09:22:31;;;;;;;1.30;1.05;;;;;;;9.13;100.00;101062.28;5062378;28;20037;-76
2024/02/27 09:24:57;;;;;;;0.57;0.57;;;;;;;8.95;100.00;100990.47;5080309;28;20075;-78
2024/02/27 09:27:23;;;;;;;4.97;2.22;;;;;;;9.41;100.00;101033.09;5082190;28;20024;-77
2024/02/27 09:29:51;;;;;;;0.68;0.68;;;;;;;9.61;100.00;101027.25;5081230;28;20074;-77
2024/02/27 09:32:22;;;;;;;2.60;1.42;;;;;;;9.95;100.00;101049.53;5070564;28;20049;-76
2024/02/27 09:34:49;;;;;;;0.20;0.20;;;;;;;9.62;100.00;101053.47;5067767;28;20105;-76
2024/02/27 09:37:15;;;;;;;1.55;1.45;;;;;;;9.91;100.00;101051.22;5082687;28;20048;-75
2024/02/27 09:39:41;;;;;;;2.65;2.45;;;;;;;9.75;100.00;101044.03;5083981;28;20052;-75
2024/02/27 09:42:09;;;;;;;0.45;0.45;;;;;;;9.39;100.00;101036.50;5084458;28;20110;-76
2024/02/27 09:44:39;;;;;;;0.50;0.50;;;;;;;10.02;100.00;101048.75;5073396;28;20043;-76
2024/02/27 09:47:10;;;;;;;0.70;0.70;;;;;;;9.73;100.00;101014.28;5083864;28;20134;-76
2024/02/27 09:49:41;;;;;;;1.13;0.90;;;;;;;9.86;100.00;100952.44;5077114;28;20058;-76
2024/02/27 09:52:10;;;;;;;0.45;0.45;;;;;;;10.20;100.00;101040.22;5077211;28;20052;-75
2024/02/27 09:54:38;;;;;;;0.55;0.55;;;;;;;9.58;100.00;100911.94;5064429;28;20056;-75
2024/02/27 09:57:04;;;;;;;2.05;1.45;;;;;;;9.68;100.00;101019.47;5082314;28;20629;-78
2024/02/27 09:59:31;;;;;;;1.35;1.25;;;;;;;9.41;100.00;100943.13;5075688;28;20056;-76
2024/02/27 10:02:03;;;;;;;3.42;2.50;;;;;;;10.08;100.00;100967.53;5072332;28;20040;-75
2024/02/27 10:04:31;;;;;;;0.60;0.60;;;;;;;9.69;100.00;101023.88;5076138;28;20143;-74
2024/02/27 10:06:59;;;;;;;0.22;0.22;;;;;;;10.26;100.00;101042.03;5072368;28;20044;-75
2024/02/27 10:09:27;;;;;;;0.38;0.38;;;;;;;10.77;100.00;101038.25;5084537;28;20024;-76
2024/02/27 10:11:53;;;;;;;0.20;0.20;;;;;;;10.34;100.00;101029.91;5081362;28;20039;-76
2024/02/27 10:14:33;;;;;;;1.05;0.98;;;;;;;9.64;100.00;100920.72;5085568;28;20143;-76
2024/02/27 10:16:59;;;;;;;1.23;1.13;;;;;;;10.70;100.00;101033.75;5064164;28;20032;-75
2024/02/27 10:19:29;;;;;;;2.05;1.63;;;;;;;10.32;100.00;101003.69;5078697;28;20048;-76
2024/02/27 10:21:55;;;;;;;2.60;1.90;;;;;;;10.71;100.00;101020.66;5074281;28;20155;-76
2024/02/27 10:24:27;;;;;;;4.72;2.33;;;;;;;10.28;100.00;101021.97;5080764;28;20079;-75
2024/02/27 10:26:56;;;;;;;1.95;0.52;;;;;;;10.37;100.00;101026.44;5079739;28;20036;-75
2024/02/27 10:29:23;;;;;;;3.38;2.90;;;;;;;10.56;100.00;100924.31;5084936;28;20044;-76
2024/02/27 10:31:52;;;;;;;0.50;0.50;;;;;;;10.09;100.00;100997.25;5058141;28;20394;-76
2024/02/27 10:34:21;;;;;;;2.03;1.85;;;;;;;10.83;100.00;101024.28;5081303;28;20051;-75
2024/02/27 10:37:04;;;;;;;1.83;1.33;;;;;;;11.10;100.00;100979.00;5082996;28;20059;-77
2024/02/27 10:39:33;;;;;;;0.88;0.85;;;;;;;10.08;100.00;100929.94;5077999;28;20036;-75
2024/02/27 10:41:59;;;;;;;0.77;0.73;;;;;;;10.91;100.00;100997.22;5081197;28;20097;-77
2024/02/27 10:44:29;;;;;;;0.20;0.20;;;;;;;10.68;100.00;100931.41;5076862;28;20119;-75
2024/02/27 10:46:57;;;;;;;1.95;1.60;;;;;;;11.32;100.00;100936.19;5078394;28;20037;-75
2024/02/27 10:49:23;;;;;;;1.80;1.25;;;;;;;10.85;100.00;100999.78;5060667;28;20420;-73
2024/02/27 10:51:48;;;;;;;7.97;2.88;;;;;;;10.16;100.00;100920.44;5081148;28;20057;-76
2024/02/27 10:54:18;;;;;;;2.55;2.28;;;;;;;11.44;100.00;100984.44;5083373;28;20047;-75
2024/02/27 10:56:47;;;;;;;2.60;2.40;;;;;;;10.82;100.00;101012.03;5078538;28;20040;-76
2024/02/27 10:59:13;;;;;;;0.20;0.20;;;;;;;9.91;100.00;100921.91;5075587;28;20584;-77
2024/02/27 11:01:44;;;;;;;6.80;2.50;;;;;;;10.90;100.00;100915.81;5072011;28;20063;-76
2024/02/27 11:04:17;;;;;;;1.13;1.05;;;;;;;11.26;100.00;101020.25;5077054;28;20102;-77
2024/02/27 11:06:46;;;;;;;4.05;3.85;;;;;;;11.70;100.00;100993.31;5079475;28;20097;-75
2024/02/27 11:09:13;;;;;;;3.92;2.42;;;;;;;11.64;100.00;101022.22;5076273;28;20028;-76
2024/02/27 11:11:41;;;;;;;4.00;1.63;;;;;;;11.68;100.00;101034.50;5079779;28;20119;-75
2024/02/27 11:14:08;;;;;;;1.65;1.55;;;;;;;11.58;100.00;101011.66;5078088;28;20048;-76
2024/02/27 11:16:39;;;;;;;0.77;0.77;;;;;;;11.94;100.00;100976.81;5080916;28;20052;-75
2024/02/27 11:19:22;;;;;;;17.67;3.95;;;;;;;11.31;100.00;101017.66;5082296;28;20055;-74
2024/02/27 11:21:52;;;;;;;5.70;2.60;;;;;;;10.98;100.00;101014.78;5084320;28;20052;-76
2024/02/27 11:24:19;;;;;;;0.47;0.47;;;;;;;10.96;100.00;101000.75;5075779;28;20044;-74